Terminal Aerodrome Forecast
Issued by NWS

Home | Current Version | Previous Version | Text Only | Print | Product List | Glossary On
Versions: 1 2 3 4 5 6 7 8 9 10 11 12 13 14 15 16 17 18 19 20 21
797
FTUS42 KGSP 251735
TAFAND
TAF
KAND 251735Z 2518/2618 26005KT P6SM SCT040
     FM252300 20003KT P6SM SCT050
     FM260300 VRB02KT P6SM FEW150
     FM260600 00000KT 5SM BR FEW250
     FM261300 21006KT P6SM FEW050=

USA.gov is the U.S. government's official web portal to all federal, state and local government web resources and services.